Time;durP1;ratioP1;P1;durP2;ratioP2;P2;SDS_P1;SDS_P2;PMS_P1;PMS_P2;Temp;Humidity;BMP_temperature;BMP_pressure;BME280_temperature;BME280_humidity;BME280_pressure;Samples;Min_cycle;Max_cycle;Signal;HPM_P1;HPM_P2
2021/12/02 00:02:14;;;;;;;;;;;;;;;6.26;86.18;96076.72;1725038;82;20496;-83
2021/12/02 00:04:43;;;;;;;;;;;;;;;6.23;86.22;96074.38;1712036;82;24754;-84
2021/12/02 00:07:10;;;;;;;;;;;;;;;6.22;86.25;96063.17;1723016;82;22006;-85
2021/12/02 00:09:38;;;;;;;;;;;;;;;6.26;86.27;96065.86;1721711;82;26448;-84
2021/12/02 00:12:05;;;;;;;;;;;;;;;6.27;86.32;96055.78;1722508;82;24500;-83
2021/12/02 00:14:40;;;;;;;;;;;;;;;6.32;86.35;96059.29;1729003;82;20783;-83
2021/12/02 00:22:12;;;;;;;;;;;;;;;6.75;86.53;96061.85;1710833;82;26276;-83
2021/12/02 00:24:40;;;;;;;;;;;;;;;6.93;86.61;96048.42;1723556;82;24623;-84
2021/12/02 00:27:10;;;;;;;;;;;;;;;7.01;86.66;96036.36;1727284;82;20324;-85
2021/12/02 00:29:37;;;;;;;;;;;;;;;7.12;86.70;96049.17;1719260;82;25561;-84
2021/12/02 00:32:04;;;;;;;;;;;;;;;7.22;86.72;96045.70;1719374;82;22188;-84
2021/12/02 00:34:31;;;;;;;;;;;;;;;7.31;86.72;96047.45;1725952;82;27142;-84
2021/12/02 00:37:00;;;;;;;;;;;;;;;7.40;86.68;96055.67;1746594;81;20190;-84
2021/12/02 00:42:20;;;;;;;;;;;;;;;7.55;86.58;96050.30;1743090;81;22664;-86
2021/12/02 00:44:46;;;;;;;;;;;;;;;7.61;86.47;96063.22;1741365;82;21525;-86
2021/12/02 00:47:14;;;;;;;;;;;;;;;7.66;86.40;96065.71;1680735;84;25959;-85
2021/12/02 00:49:40;;;;;;;;;;;;;;;7.69;86.33;96063.31;1689495;84;24804;-86
2021/12/02 00:52:07;;;;;;;;;;;;;;;7.73;86.22;96068.08;1679182;85;20160;-85
2021/12/02 00:54:34;;;;;;;;;;;;;;;7.75;86.13;96068.72;1678399;84;24726;-85
2021/12/02 00:57:02;;;;;;;;;;;;;;;7.79;86.07;96068.78;1674888;85;20169;-84
2021/12/02 00:59:32;;;;;;;;;;;;;;;7.83;85.96;96070.60;1681027;84;26090;-84
2021/12/02 01:01:59;;;;;;;;;;;;;;;7.85;85.87;96066.08;1674545;84;24484;-84
2021/12/02 01:04:26;;;;;;;;;;;;;;;7.86;85.79;96071.11;1739255;81;20239;-84
2021/12/02 01:06:52;;;;;;;;;;;;;;;7.90;85.68;96076.38;1734267;82;24830;-85
2021/12/02 01:09:19;;;;;;;;;;;;;;;7.93;85.59;96076.07;1734090;82;22095;-85
2021/12/02 01:11:45;;;;;;;;;;;;;;;7.94;85.49;96080.31;1738477;82;26218;-84
2021/12/02 01:14:12;;;;;;;;;;;;;;;7.97;85.39;96093.51;1683360;83;24538;-84
2021/12/02 01:16:40;;;;;;;;;;;;;;;7.96;85.23;96088.78;1666465;84;20247;-84
2021/12/02 01:19:12;;;;;;;;;;;;;;;7.96;85.12;96081.48;1739363;82;24817;-84
2021/12/02 01:21:40;;;;;;;;;;;;;;;7.96;85.01;96075.77;1734158;82;22006;-84
2021/12/02 01:24:07;;;;;;;;;;;;;;;7.94;84.92;96082.92;1721945;81;25748;-85
2021/12/02 01:26:35;;;;;;;;;;;;;;;7.91;84.81;96075.39;1732854;82;24501;-84
2021/12/02 01:29:05;;;;;;;;;;;;;;;7.93;84.68;96079.16;1737046;81;20322;-83
2021/12/02 01:31:33;;;;;;;;;;;;;;;7.94;84.58;96076.89;1725494;81;25162;-83
2021/12/02 01:34:07;;;;;;;;;;;;;;;7.95;84.44;96075.93;1739157;82;21986;-83
2021/12/02 01:36:33;;;;;;;;;;;;;;;7.96;84.33;96086.69;1736595;81;25948;-84
2021/12/02 01:39:09;;;;;;;;;;;;;;;7.97;84.17;96081.80;1736455;81;25106;-83
2021/12/02 01:41:49;;;;;;;;;;;;;;;7.97;84.04;96077.89;1725797;82;20550;-84
2021/12/02 01:44:18;;;;;;;;;;;;;;;8.00;83.87;96078.91;1739212;82;25015;-84
2021/12/02 01:46:46;;;;;;;;;;;;;;;8.03;83.69;96084.28;1741401;81;22864;-84
2021/12/02 01:49:13;;;;;;;;;;;;;;;8.00;83.55;96075.00;1738106;81;26215;-84
2021/12/02 01:51:42;;;;;;;;;;;;;;;7.99;83.37;96071.58;1737960;81;25322;-83
2021/12/02 01:54:16;;;;;;;;;;;;;;;7.99;83.23;96069.45;1737921;82;20291;-83
2021/12/02 01:56:43;;;;;;;;;;;;;;;8.00;83.11;96077.61;1742901;82;25362;-83
2021/12/02 01:59:11;;;;;;;;;;;;;;;8.02;82.96;96076.16;1726680;81;22207;-85
2021/12/02 02:01:39;;;;;;;;;;;;;;;8.01;82.83;96085.77;1690807;83;25890;-84
2021/12/02 02:04:06;;;;;;;;;;;;;;;8.03;82.70;96071.27;1660483;85;25309;-84
2021/12/02 02:06:40;;;;;;;;;;;;;;;8.02;82.57;96082.16;1697444;83;20242;-85
2021/12/02 02:09:09;;;;;;;;;;;;;;;8.03;82.41;96087.71;1696361;83;20669;-84
2021/12/02 02:11:43;;;;;;;;;;;;;;;8.03;82.29;96075.99;1665068;84;22839;-84
2021/12/02 02:14:08;;;;;;;;;;;;;;;8.05;82.18;96081.88;1667464;84;26653;-84
2021/12/02 02:16:34;;;;;;;;;;;;;;;8.03;82.05;96089.02;1669710;85;24343;-84
2021/12/02 02:19:00;;;;;;;;;;;;;;;8.02;81.89;96090.48;1674626;84;20315;-84
2021/12/02 02:21:26;;;;;;;;;;;;;;;8.01;81.77;96092.27;1669296;85;24778;-84
2021/12/02 02:24:00;;;;;;;;;;;;;;;8.01;81.65;96092.75;1674547;85;22083;-84
2021/12/02 02:26:31;;;;;;;;;;;;;;;8.01;81.54;96088.36;1660915;85;26000;-84
2021/12/02 02:28:57;;;;;;;;;;;;;;;8.00;81.43;96089.33;1670190;85;24694;-84
2021/12/02 02:31:36;;;;;;;;;;;;;;;7.96;81.36;96086.18;1687127;83;20516;-85
2021/12/02 02:34:03;;;;;;;;;;;;;;;7.96;81.23;96090.59;1670863;85;24996;-84
2021/12/02 02:36:31;;;;;;;;;;;;;;;7.93;81.13;96086.48;1684196;82;21946;-85
2021/12/02 02:38:58;;;;;;;;;;;;;;;7.93;81.00;96093.00;1673213;85;26036;-84
2021/12/02 02:41:26;;;;;;;;;;;;;;;7.94;80.86;96093.82;1727294;82;24440;-84
2021/12/02 02:43:57;;;;;;;;;;;;;;;7.95;80.77;96099.37;1732940;81;20169;-84
2021/12/02 02:46:24;;;;;;;;;;;;;;;7.94;80.65;96086.01;1679005;84;24928;-85
2021/12/02 02:48:51;;;;;;;;;;;;;;;7.94;80.54;96080.80;1682854;84;21523;-84
2021/12/02 02:51:26;;;;;;;;;;;;;;;7.92;80.46;96090.05;1685099;84;25985;-84
2021/12/02 02:53:55;;;;;;;;;;;;;;;7.89;80.32;96087.76;1674977;84;25298;-84
2021/12/02 02:56:23;;;;;;;;;;;;;;;7.91;80.15;96096.22;1735334;82;20230;-84
2021/12/02 02:59:03;;;;;;;;;;;;;;;7.92;80.03;96092.66;1729239;81;24822;-84
2021/12/02 03:06:51;;;;;;;;;;;;;;;7.90;79.69;96091.19;1730114;82;24475;-83
2021/12/02 03:09:23;;;;;;;;;;;;;;;7.89;79.58;96094.75;1735385;81;20528;-84
2021/12/02 03:11:49;;;;;;;;;;;;;;;7.88;79.52;96097.02;1739392;82;24243;-84
2021/12/02 03:14:17;;;;;;;;;;;;;;;7.86;79.42;96097.15;1740192;81;22007;-84
2021/12/02 03:16:46;;;;;;;;;;;;;;;7.87;79.36;96094.06;1737613;82;26012;-84
2021/12/02 03:19:14;;;;;;;;;;;;;;;7.87;79.26;96100.09;1737404;82;24525;-84
2021/12/02 03:21:41;;;;;;;;;;;;;;;7.86;79.21;96106.27;1724738;82;20293;-84
2021/12/02 03:24:07;;;;;;;;;;;;;;;7.87;79.12;96105.30;1736682;81;24797;-84
2021/12/02 03:26:34;;;;;;;;;;;;;;;7.87;79.06;96107.91;1737325;82;22014;-84
2021/12/02 03:29:00;;;;;;;;;;;;;;;7.87;78.96;96107.91;1730083;81;26017;-84
2021/12/02 03:31:33;;;;;;;;;;;;;;;7.90;78.88;96112.02;1726449;81;24412;-84
2021/12/02 03:34:05;;;;;;;;;;;;;;;7.89;78.81;96110.38;1740830;81;20219;-84
2021/12/02 03:36:31;;;;;;;;;;;;;;;7.91;78.74;96105.81;1736310;81;25549;-84
2021/12/02 03:38:58;;;;;;;;;;;;;;;7.90;78.68;96110.72;1735418;82;20254;-84
2021/12/02 03:41:25;;;;;;;;;;;;;;;7.92;78.57;96104.86;1739552;81;26077;-84
2021/12/02 03:43:52;;;;;;;;;;;;;;;7.92;78.51;96102.25;1744324;82;24393;-84
2021/12/02 03:46:19;;;;;;;;;;;;;;;7.91;78.44;96108.42;1738209;81;20238;-84
2021/12/02 03:48:46;;;;;;;;;;;;;;;7.91;78.35;96107.13;1728372;81;24798;-84
2021/12/02 03:51:12;;;;;;;;;;;;;;;7.90;78.24;96110.72;1736938;81;22103;-84
2021/12/02 03:53:38;;;;;;;;;;;;;;;7.91;78.20;96117.05;1740844;82;27039;-84
2021/12/02 03:56:07;;;;;;;;;;;;;;;7.92;78.13;96113.97;1729972;81;24325;-84
2021/12/02 03:58:33;;;;;;;;;;;;;;;7.92;78.09;96116.09;1740440;82;20406;-84
2021/12/02 04:01:00;;;;;;;;;;;;;;;7.89;78.04;96124.22;1743683;81;24796;-84
2021/12/02 04:03:26;;;;;;;;;;;;;;;7.92;77.95;96132.20;1734525;81;22136;-83
2021/12/02 04:05:52;;;;;;;;;;;;;;;7.90;77.86;96121.95;1736425;81;26088;-84
2021/12/02 04:08:19;;;;;;;;;;;;;;;7.93;77.77;96121.64;1739391;81;24533;-84
2021/12/02 04:10:48;;;;;;;;;;;;;;;7.94;77.67;96123.77;1741233;81;20282;-84
2021/12/02 04:13:42;;;;;;;;;;;;;;;7.95;77.62;96126.72;1735706;82;24758;-84
2021/12/02 04:15:49;;;;;;;;;;;;;;;7.95;77.55;96134.05;1740570;82;22056;-84
2021/12/02 04:18:17;;;;;;;;;;;;;;;7.94;77.47;96127.67;1739332;81;26099;-84
2021/12/02 04:20:47;;;;;;;;;;;;;;;7.92;77.37;96129.12;1702782;83;24518;-84
2021/12/02 04:23:13;;;;;;;;;;;;;;;7.89;77.27;96129.42;1668713;85;20232;-83
2021/12/02 04:25:39;;;;;;;;;;;;;;;7.89;77.22;96125.52;1679072;84;24801;-84
2021/12/02 04:28:07;;;;;;;;;;;;;;;7.87;77.15;96122.23;1651132;84;20308;-84
2021/12/02 04:30:33;;;;;;;;;;;;;;;7.86;77.08;96133.61;1674159;84;25983;-84
2021/12/02 04:33:01;;;;;;;;;;;;;;;7.80;77.01;96140.70;1675112;84;24542;-83
2021/12/02 04:35:27;;;;;;;;;;;;;;;7.78;76.96;96153.06;1676772;84;20518;-84
2021/12/02 04:37:56;;;;;;;;;;;;;;;7.75;76.87;96152.52;1677387;84;20276;-83
2021/12/02 04:40:22;;;;;;;;;;;;;;;7.73;76.80;96159.19;1734125;82;22100;-83
2021/12/02 04:42:49;;;;;;;;;;;;;;;7.73;76.71;96157.06;1738266;81;25941;-84
2021/12/02 04:45:15;;;;;;;;;;;;;;;7.71;76.64;96162.41;1737149;82;24733;-83
2021/12/02 04:47:41;;;;;;;;;;;;;;;7.71;76.56;96154.59;1735834;81;20278;-84
2021/12/02 04:50:08;;;;;;;;;;;;;;;7.72;76.48;96166.66;1731998;81;25049;-84
2021/12/02 04:52:35;;;;;;;;;;;;;;;7.72;76.45;96153.64;1741165;82;22009;-83
2021/12/02 04:55:01;;;;;;;;;;;;;;;7.73;76.40;96157.89;1734992;81;25930;-83
2021/12/02 04:57:27;;;;;;;;;;;;;;;7.75;76.34;96165.53;1743447;82;24444;-84
2021/12/02 04:59:55;;;;;;;;;;;;;;;7.77;76.32;96166.22;1668607;85;20217;-84
2021/12/02 05:02:22;;;;;;;;;;;;;;;7.77;76.30;96168.34;1684092;84;25387;-84
2021/12/02 05:04:48;;;;;;;;;;;;;;;7.78;76.25;96176.97;1669701;84;22763;-83
2021/12/02 05:07:14;;;;;;;;;;;;;;;7.80;76.21;96181.05;1666601;84;25995;-84
2021/12/02 05:09:40;;;;;;;;;;;;;;;7.82;76.16;96187.42;1669839;85;24522;-84
2021/12/02 05:12:06;;;;;;;;;;;;;;;7.82;76.10;96174.41;1739925;82;20199;-84
2021/12/02 05:14:33;;;;;;;;;;;;;;;7.83;76.06;96169.55;1738650;82;25084;-84
2021/12/02 05:17:00;;;;;;;;;;;;;;;7.82;75.98;96175.23;1740521;81;21987;-84
2021/12/02 05:19:26;;;;;;;;;;;;;;;7.84;75.90;96180.30;1735042;81;26077;-84
2021/12/02 05:21:52;;;;;;;;;;;;;;;7.84;75.82;96182.42;1739528;82;24565;-84
2021/12/02 05:24:18;;;;;;;;;;;;;;;7.82;75.77;96179.61;1743824;81;20307;-84
2021/12/02 05:26:50;;;;;;;;;;;;;;;7.81;75.71;96185.78;1738412;81;24995;-84
2021/12/02 05:29:17;;;;;;;;;;;;;;;7.79;75.60;96185.13;1731093;81;21950;-83
2021/12/02 05:31:43;;;;;;;;;;;;;;;7.79;75.52;96188.55;1741582;82;25985;-83
2021/12/02 05:34:10;;;;;;;;;;;;;;;7.78;75.46;96188.69;1739299;81;24438;-84
2021/12/02 05:36:36;;;;;;;;;;;;;;;7.78;75.39;96184.78;1740736;82;20382;-83
2021/12/02 05:39:02;;;;;;;;;;;;;;;7.76;75.35;96174.50;1734568;81;24741;-83
2021/12/02 05:41:31;;;;;;;;;;;;;;;7.75;75.28;96181.15;1732100;81;22114;-83
2021/12/02 05:43:56;;;;;;;;;;;;;;;7.75;75.20;96178.06;1725687;82;26053;-83
2021/12/02 05:46:22;;;;;;;;;;;;;;;7.73;75.18;96177.41;1737632;82;25130;-83
2021/12/02 05:48:48;;;;;;;;;;;;;;;7.75;75.13;96185.88;1661698;85;20875;-82
2021/12/02 05:51:15;;;;;;;;;;;;;;;7.77;75.12;96191.77;1676196;85;24985;-83
2021/12/02 05:53:41;;;;;;;;;;;;;;;7.79;75.09;96193.77;1672893;85;22103;-83
2021/12/02 05:56:09;;;;;;;;;;;;;;;7.81;75.06;96190.98;1670811;85;25993;-83
2021/12/02 05:58:35;;;;;;;;;;;;;;;7.80;75.06;96195.89;1671389;84;24450;-83
2021/12/02 06:01:02;;;;;;;;;;;;;;;7.82;75.03;96200.45;1674072;84;20345;-83
2021/12/02 06:03:36;;;;;;;;;;;;;;;7.80;75.00;96199.79;1664829;85;24863;-83
2021/12/02 06:05:58;;;;;;;;;;;;;;;7.78;74.96;96194.72;1671613;84;22766;-84
2021/12/02 06:08:24;;;;;;;;;;;;;;;7.77;74.93;96196.98;1667686;84;26047;-84
2021/12/02 06:10:50;;;;;;;;;;;;;;;7.76;74.90;96192.73;1673273;84;24462;-83
2021/12/02 06:13:16;;;;;;;;;;;;;;;7.73;74.83;96202.14;1677156;84;20332;-83
2021/12/02 06:15:42;;;;;;;;;;;;;;;7.72;74.79;96204.88;1675800;85;24847;-83
2021/12/02 06:18:13;;;;;;;;;;;;;;;7.73;74.74;96202.14;1674863;84;22120;-84
2021/12/02 06:20:39;;;;;;;;;;;;;;;7.73;74.74;96198.72;1674495;84;26909;-83
2021/12/02 06:23:06;;;;;;;;;;;;;;;7.71;74.75;96198.85;1668076;84;24649;-83
2021/12/02 06:28:04;;;;;;;;;;;;;;;7.73;74.75;96194.81;1678414;84;25643;-83
2021/12/02 06:30:32;;;;;;;;;;;;;;;7.73;74.75;96190.91;1667801;84;21973;-83
2021/12/02 06:32:58;;;;;;;;;;;;;;;7.72;74.73;96194.47;1738569;81;26743;-83
2021/12/02 06:35:26;;;;;;;;;;;;;;;7.71;74.73;96198.85;1733470;81;20215;-82
2021/12/02 06:37:52;;;;;;;;;;;;;;;7.70;74.73;96200.30;1734680;81;20481;-83
2021/12/02 06:40:18;;;;;;;;;;;;;;;7.67;74.67;96193.61;1742150;82;24748;-83
2021/12/02 06:42:44;;;;;;;;;;;;;;;7.65;74.64;96200.73;1734908;82;21992;-82
2021/12/02 06:45:11;;;;;;;;;;;;;;;7.64;74.58;96211.30;1736772;82;25969;-83
2021/12/02 06:47:46;;;;;;;;;;;;;;;7.63;74.56;96207.06;1729255;82;24393;-83
2021/12/02 06:50:16;;;;;;;;;;;;;;;7.62;74.54;96211.44;1734770;82;20244;-84
2021/12/02 06:52:42;;;;;;;;;;;;;;;7.62;74.52;96212.74;1739939;82;27098;-83
2021/12/02 06:55:09;;;;;;;;;;;;;;;7.63;74.53;96217.47;1734906;82;22138;-83
2021/12/02 06:57:35;;;;;;;;;;;;;;;7.63;74.52;96231.31;1738506;82;26062;-83
2021/12/02 07:00:07;;;;;;;;;;;;;;;7.65;74.52;96233.74;1738769;82;24648;-83
2021/12/02 07:02:34;;;;;;;;;;;;;;;7.65;74.51;96228.06;1732199;81;20344;-83
2021/12/02 07:04:58;;;;;;;;;;;;;;;7.67;74.52;96224.02;1686954;83;24719;-83
2021/12/02 07:07:30;;;;;;;;;;;;;;;7.68;74.55;96233.48;1672905;85;22082;-83
2021/12/02 07:09:55;;;;;;;;;;;;;;;7.70;74.57;96219.81;1674483;85;26294;-83
2021/12/02 07:12:33;;;;;;;;;;;;;;;7.69;74.56;96226.80;1671762;84;24531;-83
2021/12/02 07:15:07;;;;;;;;;;;;;;;7.69;74.59;96233.31;1673162;84;20424;-83
2021/12/02 07:17:28;;;;;;;;;;;;;;;7.70;74.61;96228.92;1675189;84;24805;-83
2021/12/02 07:19:54;;;;;;;;;;;;;;;7.67;74.60;96226.14;1671307;85;21949;-83
2021/12/02 07:22:20;;;;;;;;;;;;;;;7.68;74.59;96229.57;1674618;84;21212;-83
2021/12/02 07:24:46;;;;;;;;;;;;;;;7.67;74.63;96232.66;1671017;84;20337;-84
2021/12/02 07:27:15;;;;;;;;;;;;;;;7.67;74.63;96233.13;1676848;84;20176;-83
2021/12/02 07:29:41;;;;;;;;;;;;;;;7.68;74.65;96237.38;1670662;85;20690;-83
2021/12/02 07:32:10;;;;;;;;;;;;;;;7.67;74.66;96241.77;1674386;85;21978;-83
2021/12/02 07:34:37;;;;;;;;;;;;;;;7.67;74.68;96245.67;1671506;85;26095;-84
2021/12/02 07:37:04;;;;;;;;;;;;;;;7.67;74.68;96254.78;1676132;84;24582;-83
2021/12/02 07:39:30;;;;;;;;;;;;;;;7.71;74.70;96262.64;1671063;84;20190;-83
2021/12/02 07:42:02;;;;;;;;;;;;;;;7.74;74.73;96266.27;1675553;84;24950;-83
2021/12/02 07:44:28;;;;;;;;;;;;;;;7.75;74.81;96266.59;1678308;84;22752;-83
2021/12/02 07:46:56;;;;;;;;;;;;;;;7.76;74.83;96266.93;1678601;84;26858;-83
2021/12/02 07:49:23;;;;;;;;;;;;;;;7.78;74.88;96266.32;1675091;84;24495;-83
2021/12/02 07:51:50;;;;;;;;;;;;;;;7.78;74.88;96264.20;1674668;83;20300;-83
2021/12/02 07:54:17;;;;;;;;;;;;;;;7.76;74.88;96270.84;1666051;84;24790;-83
2021/12/02 07:56:45;;;;;;;;;;;;;;;7.76;74.87;96278.65;1734201;82;22021;-83
2021/12/02 07:59:11;;;;;;;;;;;;;;;7.75;74.87;96280.91;1741107;81;26080;-83
2021/12/02 08:01:38;;;;;;;;;;;;;;;7.76;74.88;96284.33;1741053;82;20466;-84
2021/12/02 08:04:04;;;;;;;;;;;;;;;7.77;74.88;96291.19;1737985;81;20496;-84
2021/12/02 08:06:30;;;;;;;;;;;;;;;7.76;74.87;96290.36;1674918;84;20277;-83
2021/12/02 08:08:56;;;;;;;;;;;;;;;7.77;74.88;96293.31;1675602;84;21984;-83
2021/12/02 08:11:23;;;;;;;;;;;;;;;7.81;74.91;96296.44;1684305;83;25995;-83
2021/12/02 08:13:51;;;;;;;;;;;;;;;7.83;74.90;96297.95;1673730;85;24464;-83
2021/12/02 08:16:18;;;;;;;;;;;;;;;7.85;74.94;96298.64;1694459;83;20273;-83
2021/12/02 08:18:44;;;;;;;;;;;;;;;7.88;74.95;96304.03;1695074;83;24869;-83
2021/12/02 08:21:10;;;;;;;;;;;;;;;7.88;74.98;96305.33;1667898;85;22014;-83
2021/12/02 08:23:41;;;;;;;;;;;;;;;7.88;74.96;96311.36;1673338;84;26060;-83
2021/12/02 08:26:04;;;;;;;;;;;;;;;7.87;74.94;96304.52;1676941;84;25199;-83
2021/12/02 08:28:30;;;;;;;;;;;;;;;7.86;74.87;96308.55;1673697;84;20268;-83
2021/12/02 08:30:57;;;;;;;;;;;;;;;7.83;74.85;96316.19;1741174;81;20354;-84
2021/12/02 08:33:24;;;;;;;;;;;;;;;7.81;74.79;96312.89;1715727;82;22367;-83
2021/12/02 08:35:50;;;;;;;;;;;;;;;7.79;74.73;96325.25;1740128;81;25950;-83
2021/12/02 08:38:19;;;;;;;;;;;;;;;7.80;74.70;96325.56;1742293;81;24683;-83
2021/12/02 08:40:49;;;;;;;;;;;;;;;7.84;74.71;96330.02;1740950;82;20203;-83
2021/12/02 08:43:15;;;;;;;;;;;;;;;7.86;74.72;96321.09;1734425;82;24776;-83
2021/12/02 08:45:43;;;;;;;;;;;;;;;7.87;74.72;96324.52;1734059;82;21390;-83
2021/12/02 08:48:10;;;;;;;;;;;;;;;7.88;74.71;96324.39;1733727;82;26858;-83
2021/12/02 08:50:37;;;;;;;;;;;;;;;7.89;74.72;96335.63;1737760;82;24528;-83
2021/12/02 08:53:04;;;;;;;;;;;;;;;7.89;74.70;96346.87;1741540;82;20235;-83
2021/12/02 08:55:31;;;;;;;;;;;;;;;7.88;74.64;96349.13;1745586;82;24956;-83
2021/12/02 08:58:01;;;;;;;;;;;;;;;7.83;74.61;96346.12;1742807;82;22038;-83
2021/12/02 09:00:33;;;;;;;;;;;;;;;7.83;74.53;96350.52;1744037;82;26203;-83
2021/12/02 09:02:56;;;;;;;;;;;;;;;7.79;74.44;96353.89;1738247;81;24810;-83
2021/12/02 09:05:22;;;;;;;;;;;;;;;7.81;74.37;96357.63;1731709;81;20522;-83
2021/12/02 09:07:48;;;;;;;;;;;;;;;7.82;74.36;96361.88;1736145;82;24799;-83
2021/12/02 09:10:15;;;;;;;;;;;;;;;7.85;74.34;96368.13;1733056;81;22088;-84
2021/12/02 09:12:42;;;;;;;;;;;;;;;7.82;74.29;96353.59;1736248;82;26069;-83
2021/12/02 09:15:08;;;;;;;;;;;;;;;7.86;74.21;96360.16;1743524;81;24453;-83
2021/12/02 09:17:38;;;;;;;;;;;;;;;7.85;74.17;96355.11;1727712;82;20331;-83
2021/12/02 09:20:05;;;;;;;;;;;;;;;7.85;74.09;96367.66;1736368;81;24779;-84
2021/12/02 09:22:31;;;;;;;;;;;;;;;7.87;74.03;96360.98;1738314;82;22620;-83
2021/12/02 09:24:57;;;;;;;;;;;;;;;7.86;73.95;96365.36;1723517;82;25867;-83
2021/12/02 09:27:23;;;;;;;;;;;;;;;7.85;73.86;96370.73;1737479;81;24290;-83
2021/12/02 09:29:54;;;;;;;;;;;;;;;7.83;73.77;96359.14;1738605;81;20240;-83
2021/12/02 09:32:17;;;;;;;;;;;;;;;7.83;73.65;96363.53;1735676;82;24793;-84
2021/12/02 09:34:43;;;;;;;;;;;;;;;7.82;73.53;96370.52;1737059;82;21964;-83
2021/12/02 09:37:09;;;;;;;;;;;;;;;7.86;73.45;96374.48;1728167;82;25993;-83
2021/12/02 09:39:36;;;;;;;;;;;;;;;7.86;73.38;96369.74;1735601;81;24601;-84
2021/12/02 09:42:05;;;;;;;;;;;;;;;7.88;73.33;96372.56;1733941;82;20227;-83
2021/12/02 09:44:31;;;;;;;;;;;;;;;7.85;73.29;96378.06;1732897;82;25405;-83
2021/12/02 09:46:57;;;;;;;;;;;;;;;7.85;73.22;96374.16;1740597;81;21987;-83
2021/12/02 09:49:24;;;;;;;;;;;;;;;7.83;73.14;96366.95;1734970;81;25833;-84
2021/12/02 09:54:25;;;;;;;;;;;;;;;7.81;73.04;96369.34;1725954;82;20225;-82
2021/12/02 09:56:52;;;;;;;;;;;;;;;7.81;73.04;96369.34;1737316;81;25016;-83
2021/12/02 09:59:26;;;;;;;;;;;;;;;7.81;73.00;96370.65;1734848;81;22103;-84
2021/12/02 10:01:57;;;;;;;;;;;;;;;7.81;72.97;96375.86;1725034;81;26092;-83
2021/12/02 10:04:24;;;;;;;;;;;;;;;7.80;72.93;96361.22;1714656;81;20465;-83
2021/12/02 10:06:52;;;;;;;;;;;;;;;7.80;72.92;96363.31;1738267;81;20236;-83
2021/12/02 10:12:00;;;;;;;;;;;;;;;7.77;72.84;96362.78;1679695;83;22146;-83
2021/12/02 10:14:30;;;;;;;;;;;;;;;7.76;72.76;96365.87;1734233;82;26098;-83
2021/12/02 10:17:19;;;;;;;;;;;;;;;7.76;72.67;96353.33;1735575;82;24643;-83
2021/12/02 10:20:12;;;;;;;;;;;;;;;7.74;72.54;96351.37;1737450;81;20163;-83
2021/12/02 10:22:30;;;;;;;;;;;;;;;7.75;72.43;96365.52;1739192;80;24906;-83
2021/12/02 10:24:56;;;;;;;;;;;;;;;7.76;72.37;96356.75;1736314;81;21973;-84
2021/12/02 10:27:22;;;;;;;;;;;;;;;7.77;72.29;96357.58;1741028;82;21053;-84
2021/12/02 10:29:50;;;;;;;;;;;;;;;7.82;72.30;96354.89;1732219;82;24352;-84
2021/12/02 10:32:21;;;;;;;;;;;;;;;7.86;72.32;96356.73;1741491;81;20160;-84
2021/12/02 10:34:51;;;;;;;;;;;;;;;7.93;72.36;96365.63;1743465;82;24832;-84
2021/12/02 10:37:18;;;;;;;;;;;;;;;7.92;72.37;96360.07;1737288;81;22109;-83
2021/12/02 10:40:02;;;;;;;;;;;;;;;7.93;72.35;96359.94;1735277;81;26095;-84
2021/12/02 10:42:29;;;;;;;;;;;;;;;7.96;72.33;96359.64;1741237;81;24740;-84
2021/12/02 10:44:58;;;;;;;;;;;;;;;7.97;72.32;96357.86;1746272;81;20478;-83
2021/12/02 10:47:23;;;;;;;;;;;;;;;7.95;72.26;96351.99;1736588;81;24794;-84
2021/12/02 10:49:50;;;;;;;;;;;;;;;7.98;72.24;96355.60;1738007;82;22095;-84
2021/12/02 10:52:24;;;;;;;;;;;;;;;7.96;72.21;96347.92;1724544;81;25988;-83
2021/12/02 10:54:52;;;;;;;;;;;;;;;7.95;72.15;96350.21;1731272;82;25240;-84
2021/12/02 10:57:20;;;;;;;;;;;;;;;7.95;72.12;96350.21;1735666;81;20163;-85
2021/12/02 10:59:48;;;;;;;;;;;;;;;7.94;72.07;96343.83;1690938;83;24166;-83
2021/12/02 11:02:20;;;;;;;;;;;;;;;7.92;72.04;96347.88;1684491;84;21955;-84
2021/12/02 11:04:47;;;;;;;;;;;;;;;7.90;71.97;96347.69;1662711;84;21139;-83
2021/12/02 11:07:24;;;;;;;;;;;;;;;7.91;71.90;96341.02;1671773;84;24473;-83
2021/12/02 11:09:52;;;;;;;;;;;;;;;7.90;71.83;96347.21;1672310;83;20488;-84
2021/12/02 11:12:19;;;;;;;;;;;;;;;7.87;71.73;96346.66;1682493;84;24785;-83
2021/12/02 11:14:53;;;;;;;;;;;;;;;7.83;71.62;96348.73;1643960;85;23131;-83
2021/12/02 11:17:21;;;;;;;;;;;;;;;7.79;71.51;96356.49;1662410;85;26048;-83
2021/12/02 11:19:48;;;;;;;;;;;;;;;7.79;71.39;96364.30;1681820;84;24527;-83
2021/12/02 11:22:16;;;;;;;;;;;;;;;7.80;71.30;96365.13;1674237;84;20882;-84
2021/12/02 11:24:43;;;;;;;;;;;;;;;7.81;71.22;96364.14;1672968;84;24660;-84
2021/12/02 11:27:14;;;;;;;;;;;;;;;7.81;71.18;96362.84;1671251;84;22018;-84
2021/12/02 11:29:50;;;;;;;;;;;;;;;7.83;71.09;96364.35;1673060;84;25962;-84
2021/12/02 11:32:33;;;;;;;;;;;;;;;7.85;71.03;96361.14;1667618;85;24651;-83
2021/12/02 11:35:12;;;;;;;;;;;;;;;7.88;71.00;96362.15;1664382;85;20315;-83
2021/12/02 11:37:39;;;;;;;;;;;;;;;7.87;70.96;96348.78;1671892;85;24848;-83
2021/12/02 11:40:07;;;;;;;;;;;;;;;7.89;70.88;96349.95;1669861;85;21934;-84
2021/12/02 11:42:35;;;;;;;;;;;;;;;7.87;70.78;96352.69;1680495;83;26536;-83
2021/12/02 11:45:04;;;;;;;;;;;;;;;7.88;70.73;96350.42;1690818;84;24699;-83
2021/12/02 11:47:30;;;;;;;;;;;;;;;7.92;70.72;96354.86;1697652;84;20502;-83
2021/12/02 11:49:57;;;;;;;;;;;;;;;7.91;70.65;96355.34;1685691;84;24944;-84
2021/12/02 11:52:27;;;;;;;;;;;;;;;7.93;70.61;96357.81;1691324;84;22695;-83
2021/12/02 11:54:56;;;;;;;;;;;;;;;7.91;70.58;96354.03;1687635;84;26851;-84
2021/12/02 11:57:22;;;;;;;;;;;;;;;7.89;70.46;96357.77;1738975;81;24489;-83
2021/12/02 11:59:48;;;;;;;;;;;;;;;7.88;70.39;96354.34;1729497;82;20258;-83
2021/12/02 12:02:18;;;;;;;;;;;;;;;7.89;70.30;96355.98;1743888;81;24822;-83
2021/12/02 12:04:58;;;;;;;;;;;;;;;7.89;70.22;96365.58;1731436;81;22079;-83
2021/12/02 12:07:41;;;;;;;;;;;;;;;7.88;70.14;96356.94;1732436;82;25974;-83
2021/12/02 12:10:18;;;;;;;;;;;;;;;7.86;70.04;96362.76;1737560;81;24447;-84
2021/12/02 12:12:44;;;;;;;;;;;;;;;7.84;69.95;96356.06;1729136;81;20147;-83
2021/12/02 12:15:28;;;;;;;;;;;;;;;7.81;69.83;96368.05;1740201;82;24827;-83
2021/12/02 12:17:54;;;;;;;;;;;;;;;7.81;69.74;96368.05;1731008;81;22189;-83
2021/12/02 12:20:23;;;;;;;;;;;;;;;7.76;69.64;96358.05;1739622;82;26798;-83
2021/12/02 12:22:49;;;;;;;;;;;;;;;7.77;69.55;96358.41;1736329;81;24441;-84
2021/12/02 12:25:17;;;;;;;;;;;;;;;7.77;69.48;96362.31;1737767;81;20223;-83
2021/12/02 12:27:45;;;;;;;;;;;;;;;7.65;69.40;96348.28;1738361;81;25678;-84
2021/12/02 12:30:24;;;;;;;;;;;;;;;7.73;69.37;96362.26;1719929;82;20534;-83
2021/12/02 12:38:18;;;;;;;;;;;;;;;7.69;69.20;96356.17;1735011;81;20470;-83
2021/12/02 12:40:46;;;;;;;;;;;;;;;7.68;69.15;96355.83;1692552;83;24956;-83
2021/12/02 12:43:14;;;;;;;;;;;;;;;7.65;69.11;96358.22;1671932;83;21952;-83
2021/12/02 12:45:42;;;;;;;;;;;;;;;7.67;69.08;96360.69;1731578;81;26754;-84
2021/12/02 12:48:09;;;;;;;;;;;;;;;7.70;69.10;96359.92;1730502;82;24432;-83
2021/12/02 12:50:37;;;;;;;;;;;;;;;7.68;69.10;96352.75;1741396;81;20147;-83
2021/12/02 12:53:04;;;;;;;;;;;;;;;7.64;69.07;96353.17;1740338;81;24292;-84
2021/12/02 12:55:32;;;;;;;;;;;;;;;7.60;69.00;96350.01;1738906;82;21548;-83
2021/12/02 12:58:12;;;;;;;;;;;;;;;7.60;68.98;96352.61;1674159;84;25883;-83
2021/12/02 13:00:46;;;;;;;;;;;;;;;7.60;68.97;96355.22;1675380;85;24566;-83
2021/12/02 13:03:22;;;;;;;;;;;;;;;7.61;68.99;96352.13;1679535;83;20484;-83
2021/12/02 13:05:59;;;;;;;;;;;;;;;7.58;68.97;96353.25;1659791;84;25822;-83
2021/12/02 13:08:30;;;;;;;;;;;;;;;7.57;68.96;96346.39;1655305;85;21481;-83
2021/12/02 13:10:56;;;;;;;;;;;;;;;7.51;68.89;96347.77;1734559;82;25933;-83
2021/12/02 13:13:27;;;;;;;;;;;;;;;7.47;68.83;96345.59;1732774;81;24225;-84
2021/12/02 13:16:17;;;;;;;;;;;;;;;7.46;68.76;96355.66;1690168;83;20480;-83
2021/12/02 13:18:52;;;;;;;;;;;;;;;7.45;68.75;96357.91;1672576;85;24827;-83
2021/12/02 13:21:34;;;;;;;;;;;;;;;7.45;68.72;96361.34;1665263;85;20249;-83
2021/12/02 13:24:11;;;;;;;;;;;;;;;7.46;68.70;96369.97;1667337;85;26086;-83
2021/12/02 13:26:39;;;;;;;;;;;;;;;7.44;68.66;96366.67;1670275;85;24677;-83
2021/12/02 13:29:07;;;;;;;;;;;;;;;7.38;68.57;96365.44;1674283;84;20168;-83
2021/12/02 13:31:36;;;;;;;;;;;;;;;7.38;68.48;96365.92;1745110;81;24760;-83